Time;durP1;ratioP1;P1;durP2;ratioP2;P2;SDS_P1;SDS_P2;PMS_P1;PMS_P2;Temp;Humidity;BMP_temperature;BMP_pressure;BME280_temperature;BME280_humidity;BME280_pressure;Samples;Min_cycle;Max_cycle;Signal;HPM_P1;HPM_P2
2022/07/29 00:02:11;;;;;;;4.85;3.22;;;;;;;;;;5028224;28;20096;-76
2022/07/29 00:04:37;;;;;;;3.95;2.95;;;;;;;;;;5023723;28;20025;-76
2022/07/29 00:07:04;;;;;;;3.40;3.10;;;;;;;;;;5024973;28;20029;-76
2022/07/29 00:09:31;;;;;;;4.40;3.05;;;;;;;;;;5026039;28;20420;-75
2022/07/29 00:11:59;;;;;;;3.90;3.00;;;;;;;;;;5028209;28;20411;-76
2022/07/29 00:14:25;;;;;;;4.68;3.50;;;;;;;;;;5026515;28;20500;-75
2022/07/29 00:16:51;;;;;;;5.15;3.00;;;;;;;;;;5026851;28;20057;-75
2022/07/29 00:19:17;;;;;;;4.35;3.20;;;;;;;;;;5028825;28;20454;-76
2022/07/29 00:21:43;;;;;;;3.97;3.05;;;;;;;;;;5027911;28;20371;-75
2022/07/29 00:24:09;;;;;;;4.80;3.05;;;;;;;;;;5023483;28;20033;-75
2022/07/29 00:26:35;;;;;;;3.30;3.00;;;;;;;;;;5026500;28;20104;-75
2022/07/29 00:29:02;;;;;;;6.75;3.72;;;;;;;;;;5025045;28;20096;-75
2022/07/29 00:31:28;;;;;;;3.88;2.92;;;;;;;;;;5025358;28;20028;-75
2022/07/29 00:33:55;;;;;;;5.97;3.10;;;;;;;;;;5020948;28;20059;-76
2022/07/29 00:36:21;;;;;;;6.22;3.70;;;;;;;;;;5025172;28;20399;-76
2022/07/29 00:38:50;;;;;;;3.83;3.10;;;;;;;;;;5028348;28;20571;-74
2022/07/29 00:41:16;;;;;;;3.15;2.67;;;;;;;;;;5022899;28;20122;-74
2022/07/29 00:43:43;;;;;;;3.25;2.95;;;;;;;;;;5025943;28;20415;-76
2022/07/29 00:46:09;;;;;;;10.75;3.13;;;;;;;;;;5022304;28;20476;-76
2022/07/29 00:48:35;;;;;;;5.28;2.95;;;;;;;;;;5025136;28;20217;-76
2022/07/29 00:51:02;;;;;;;4.82;3.00;;;;;;;;;;5027581;28;20104;-75
2022/07/29 00:53:28;;;;;;;3.47;2.90;;;;;;;;;;5024066;28;20501;-75
2022/07/29 00:55:55;;;;;;;3.70;2.72;;;;;;;;;;5027078;28;20079;-74
2022/07/29 00:58:21;;;;;;;4.40;2.90;;;;;;;;;;5021644;28;20602;-76
2022/07/29 01:00:47;;;;;;;3.22;2.70;;;;;;;;;;5027486;28;20175;-75
2022/07/29 01:03:13;;;;;;;5.88;3.03;;;;;;;;;;5026992;28;20075;-75
2022/07/29 01:05:41;;;;;;;6.35;3.00;;;;;;;;;;5022729;28;20030;-75
2022/07/29 01:08:07;;;;;;;3.38;2.88;;;;;;;;;;5024178;28;20447;-76
2022/07/29 01:10:34;;;;;;;3.80;2.97;;;;;;;;;;5028067;28;20108;-75
2022/07/29 01:13:01;;;;;;;3.65;2.83;;;;;;;;;;5024810;28;20044;-75
2022/07/29 01:15:28;;;;;;;3.53;3.20;;;;;;;;;;5027267;28;20113;-75
2022/07/29 01:17:57;;;;;;;4.63;2.83;;;;;;;;;;5023162;28;20831;-75
2022/07/29 01:20:29;;;;;;;4.93;2.80;;;;;;;;;;5029854;28;20318;-74
2022/07/29 01:22:58;;;;;;;2.72;2.50;;;;;;;;;;5030529;28;20029;-75
2022/07/29 01:25:27;;;;;;;4.32;3.00;;;;;;;;;;5028728;28;20021;-76
2022/07/29 01:27:59;;;;;;;5.13;2.72;;;;;;;;;;5027788;28;20033;-76
2022/07/29 01:30:26;;;;;;;3.95;2.65;;;;;;;;;;5024239;28;20033;-75
2022/07/29 01:32:55;;;;;;;3.80;3.00;;;;;;;;;;5021921;28;20034;-74
2022/07/29 01:35:25;;;;;;;4.20;3.50;;;;;;;;;;5023968;28;20138;-75
2022/07/29 01:37:56;;;;;;;3.95;3.00;;;;;;;;;;5026510;28;20475;-75
2022/07/29 01:40:27;;;;;;;3.95;3.03;;;;;;;;;;5032635;28;20029;-75
2022/07/29 01:42:56;;;;;;;3.88;2.67;;;;;;;;;;5030852;28;20172;-75
2022/07/29 01:45:25;;;;;;;3.45;3.05;;;;;;;;;;5030781;28;20120;-76
2022/07/29 01:48:00;;;;;;;4.72;3.03;;;;;;;;;;5028694;28;20034;-75
2022/07/29 01:50:49;;;;;;;3.70;3.20;;;;;;;;;;5028894;28;20030;-76
2022/07/29 01:53:22;;;;;;;4.40;3.00;;;;;;;;;;5031104;28;20079;-75
2022/07/29 01:55:49;;;;;;;4.75;3.17;;;;;;;;;;5026818;28;20504;-75
2022/07/29 01:58:15;;;;;;;3.17;2.88;;;;;;;;;;5029301;28;20498;-75
2022/07/29 02:00:42;;;;;;;3.50;2.90;;;;;;;;;;5025652;28;20072;-76
2022/07/29 02:03:11;;;;;;;4.90;3.10;;;;;;;;;;5028407;28;20071;-75
2022/07/29 02:05:39;;;;;;;4.15;3.20;;;;;;;;;;5028543;28;20052;-76
2022/07/29 02:08:07;;;;;;;5.57;3.38;;;;;;;;;;5030340;28;20048;-76
2022/07/29 02:10:33;;;;;;;3.67;3.20;;;;;;;;;;5027619;28;20024;-76
2022/07/29 02:13:00;;;;;;;5.30;3.20;;;;;;;;;;5024797;28;20390;-75
2022/07/29 02:15:27;;;;;;;4.78;3.38;;;;;;;;;;5026257;28;20044;-75
2022/07/29 02:17:56;;;;;;;4.55;3.45;;;;;;;;;;5020070;28;20018;-75
2022/07/29 02:20:23;;;;;;;3.75;3.35;;;;;;;;;;5027516;28;20026;-75
2022/07/29 02:22:51;;;;;;;5.28;4.25;;;;;;;;;;5025267;28;20083;-76
2022/07/29 02:25:18;;;;;;;4.28;3.70;;;;;;;;;;5026794;28;20440;-76
2022/07/29 02:27:44;;;;;;;4.63;3.35;;;;;;;;;;5027709;28;20022;-76
2022/07/29 02:30:12;;;;;;;4.22;3.83;;;;;;;;;;5025179;28;20477;-76
2022/07/29 02:32:40;;;;;;;4.32;3.92;;;;;;;;;;5023771;28;20188;-74
2022/07/29 02:35:07;;;;;;;6.10;3.75;;;;;;;;;;5029811;28;20057;-75
2022/07/29 02:37:34;;;;;;;4.22;3.70;;;;;;;;;;5028308;28;20031;-74
2022/07/29 02:40:00;;;;;;;4.82;3.20;;;;;;;;;;5025593;28;20041;-74
2022/07/29 02:42:27;;;;;;;5.47;3.15;;;;;;;;;;5026532;28;20526;-76
2022/07/29 02:44:53;;;;;;;4.15;3.75;;;;;;;;;;5029260;28;20052;-76
2022/07/29 02:47:47;;;;;;;5.82;3.90;;;;;;;;;;5029292;28;20526;-76
2022/07/29 02:50:16;;;;;;;5.03;3.60;;;;;;;;;;5031178;28;20046;-76
2022/07/29 02:52:44;;;;;;;5.38;3.58;;;;;;;;;;5026166;28;20033;-76
2022/07/29 02:55:16;;;;;;;4.80;3.95;;;;;;;;;;5026367;28;20037;-76
2022/07/29 02:57:54;;;;;;;7.03;4.03;;;;;;;;;;5023741;28;20021;-74
2022/07/29 03:00:21;;;;;;;4.55;3.85;;;;;;;;;;5020207;28;20021;-75
2022/07/29 03:02:50;;;;;;;7.82;4.90;;;;;;;;;;5026707;28;20021;-76
2022/07/29 03:05:18;;;;;;;5.10;4.60;;;;;;;;;;5025797;28;20037;-75
2022/07/29 03:07:46;;;;;;;6.40;4.80;;;;;;;;;;5028362;28;20079;-76
2022/07/29 03:10:13;;;;;;;6.75;5.20;;;;;;;;;;5027327;28;20032;-75
2022/07/29 03:12:39;;;;;;;7.63;4.90;;;;;;;;;;5025187;28;20482;-75
2022/07/29 03:15:06;;;;;;;7.20;4.53;;;;;;;;;;5027625;28;20041;-75
2022/07/29 03:17:32;;;;;;;5.90;5.00;;;;;;;;;;5028800;28;20034;-76
2022/07/29 03:19:59;;;;;;;6.00;5.40;;;;;;;;;;5027028;28;20025;-74
2022/07/29 03:22:25;;;;;;;5.90;5.10;;;;;;;;;;5019999;28;20037;-76
2022/07/29 03:24:51;;;;;;;6.72;5.20;;;;;;;;;;5021691;28;20058;-76
2022/07/29 03:27:17;;;;;;;6.72;5.20;;;;;;;;;;5028040;28;20030;-75
2022/07/29 03:29:43;;;;;;;7.25;5.28;;;;;;;;;;5025524;28;20310;-76
2022/07/29 03:32:09;;;;;;;6.70;5.25;;;;;;;;;;5022796;28;20075;-76
2022/07/29 03:34:37;;;;;;;6.10;5.50;;;;;;;;;;5025996;28;20049;-75
2022/07/29 03:37:03;;;;;;;6.65;4.50;;;;;;;;;;5025527;28;20021;-76
2022/07/29 03:39:32;;;;;;;7.57;4.85;;;;;;;;;;5028059;28;20096;-76
2022/07/29 03:42:00;;;;;;;6.85;5.55;;;;;;;;;;5025664;28;20018;-76
2022/07/29 03:44:26;;;;;;;6.57;5.00;;;;;;;;;;5027724;28;20509;-76
2022/07/29 03:46:54;;;;;;;7.53;5.07;;;;;;;;;;5018505;28;20022;-75
2022/07/29 03:49:22;;;;;;;7.30;5.47;;;;;;;;;;5016667;28;20026;-75
2022/07/29 03:51:48;;;;;;;6.30;4.65;;;;;;;;;;5012156;28;20055;-76
2022/07/29 03:54:14;;;;;;;5.40;4.63;;;;;;;;;;5027676;28;20029;-76
2022/07/29 03:56:42;;;;;;;5.40;3.90;;;;;;;;;;5022984;28;20195;-76
2022/07/29 03:59:10;;;;;;;8.48;6.45;;;;;;;;;;5023353;28;20021;-76
2022/07/29 04:01:36;;;;;;;8.23;4.88;;;;;;;;;;5025951;28;20484;-75
2022/07/29 04:04:04;;;;;;;7.30;5.03;;;;;;;;;;5024695;28;20036;-75
2022/07/29 04:06:37;;;;;;;7.78;4.57;;;;;;;;;;5026192;28;20045;-76
2022/07/29 04:09:04;;;;;;;4.60;4.05;;;;;;;;;;5027459;28;20097;-76
2022/07/29 04:11:30;;;;;;;7.93;3.90;;;;;;;;;;5028366;28;20376;-76
2022/07/29 04:13:56;;;;;;;5.63;4.20;;;;;;;;;;5029038;28;20389;-75
2022/07/29 04:16:22;;;;;;;7.18;4.50;;;;;;;;;;5028890;28;20044;-76
2022/07/29 04:18:48;;;;;;;6.40;4.63;;;;;;;;;;5024855;28;20786;-76
2022/07/29 04:21:14;;;;;;;7.28;4.30;;;;;;;;;;5018394;28;20601;-75
2022/07/29 04:23:40;;;;;;;6.63;4.90;;;;;;;;;;5026266;28;20025;-75
2022/07/29 04:26:09;;;;;;;9.00;5.38;;;;;;;;;;5022940;28;20030;-75
2022/07/29 04:28:35;;;;;;;6.18;4.63;;;;;;;;;;5022895;28;20013;-75
2022/07/29 04:31:01;;;;;;;5.57;4.57;;;;;;;;;;5023507;28;20057;-75
2022/07/29 04:33:28;;;;;;;6.30;5.00;;;;;;;;;;5026000;28;20101;-76
2022/07/29 04:35:54;;;;;;;5.85;4.93;;;;;;;;;;5025957;28;20597;-76
2022/07/29 04:38:20;;;;;;;6.93;5.03;;;;;;;;;;5020951;28;20030;-76
2022/07/29 04:40:46;;;;;;;10.38;5.18;;;;;;;;;;5025826;28;20084;-76
2022/07/29 04:43:12;;;;;;;6.90;4.88;;;;;;;;;;5027213;28;20444;-76
2022/07/29 04:45:38;;;;;;;7.53;4.68;;;;;;;;;;5022998;28;20426;-76
2022/07/29 04:48:04;;;;;;;6.55;5.65;;;;;;;;;;5026680;28;20068;-75
2022/07/29 04:50:30;;;;;;;5.00;4.35;;;;;;;;;;5027665;28;20030;-75
2022/07/29 04:52:56;;;;;;;9.52;4.82;;;;;;;;;;5027516;28;20025;-75
2022/07/29 04:55:22;;;;;;;7.10;4.75;;;;;;;;;;5025321;28;20029;-75
2022/07/29 04:57:48;;;;;;;9.57;4.95;;;;;;;;;;5021414;28;20427;-75
2022/07/29 05:00:15;;;;;;;7.22;5.00;;;;;;;;;;5028061;28;20025;-76
2022/07/29 05:02:41;;;;;;;6.78;5.00;;;;;;;;;;5026726;28;20561;-76
2022/07/29 05:05:07;;;;;;;6.50;5.03;;;;;;;;;;5028022;28;20158;-76
2022/07/29 05:07:33;;;;;;;8.15;4.40;;;;;;;;;;5027104;28;20021;-76
2022/07/29 05:09:59;;;;;;;6.85;4.53;;;;;;;;;;5024823;28;20026;-75
2022/07/29 05:12:25;;;;;;;7.53;4.90;;;;;;;;;;5026566;28;20025;-77
2022/07/29 05:14:52;;;;;;;5.30;4.20;;;;;;;;;;5026675;28;20025;-76
2022/07/29 05:17:18;;;;;;;7.63;4.47;;;;;;;;;;5029348;28;20037;-75
2022/07/29 05:19:44;;;;;;;5.38;3.92;;;;;;;;;;5031499;28;20068;-77
2022/07/29 05:22:10;;;;;;;8.95;4.53;;;;;;;;;;5030444;28;20017;-76
2022/07/29 05:24:36;;;;;;;5.78;4.40;;;;;;;;;;5031489;28;20053;-76
2022/07/29 05:27:02;;;;;;;6.53;4.55;;;;;;;;;;5029686;28;20969;-76
2022/07/29 05:29:28;;;;;;;5.50;4.03;;;;;;;;;;5031798;28;20540;-76
2022/07/29 05:31:54;;;;;;;7.97;4.93;;;;;;;;;;5027939;28;20372;-76
2022/07/29 05:34:20;;;;;;;6.53;4.22;;;;;;;;;;5026387;28;20029;-76
2022/07/29 05:36:46;;;;;;;4.57;4.10;;;;;;;;;;5030239;28;20037;-77
2022/07/29 05:39:12;;;;;;;4.40;4.00;;;;;;;;;;5029290;28;20056;-76
2022/07/29 05:41:39;;;;;;;6.65;4.22;;;;;;;;;;5029711;28;20104;-75
2022/07/29 05:44:06;;;;;;;5.70;3.72;;;;;;;;;;5030096;28;20053;-76
2022/07/29 05:46:32;;;;;;;4.75;3.95;;;;;;;;;;5030193;28;20036;-75
2022/07/29 05:48:58;;;;;;;6.43;4.10;;;;;;;;;;5028769;28;20629;-75
2022/07/29 05:51:24;;;;;;;5.97;4.13;;;;;;;;;;5028697;28;20044;-75
2022/07/29 05:53:50;;;;;;;5.70;4.22;;;;;;;;;;5031284;28;20021;-75
2022/07/29 05:56:16;;;;;;;5.03;4.10;;;;;;;;;;5027135;28;20485;-76
2022/07/29 05:58:43;;;;;;;3.97;3.58;;;;;;;;;;5027066;28;20029;-75
2022/07/29 06:01:09;;;;;;;5.78;4.30;;;;;;;;;;5021328;28;20527;-75
2022/07/29 06:03:37;;;;;;;5.57;4.05;;;;;;;;;;5024484;28;20056;-76
2022/07/29 06:06:03;;;;;;;6.85;3.97;;;;;;;;;;5023941;28;20269;-75
2022/07/29 06:08:29;;;;;;;5.82;4.00;;;;;;;;;;5030113;28;20044;-76
2022/07/29 06:10:55;;;;;;;7.60;4.30;;;;;;;;;;5029805;28;20033;-75
2022/07/29 06:13:21;;;;;;;4.82;3.72;;;;;;;;;;5029914;28;20061;-77
2022/07/29 06:15:48;;;;;;;6.03;4.00;;;;;;;;;;5027647;28;20491;-76
2022/07/29 06:18:14;;;;;;;4.20;3.65;;;;;;;;;;5027247;28;20048;-75
2022/07/29 06:20:40;;;;;;;4.80;3.70;;;;;;;;;;5029725;28;20116;-76
2022/07/29 06:23:06;;;;;;;8.07;4.50;;;;;;;;;;5028987;28;20145;-76
2022/07/29 06:25:34;;;;;;;4.00;3.15;;;;;;;;;;5019900;28;20021;-75
2022/07/29 06:28:00;;;;;;;5.60;3.55;;;;;;;;;;5028270;28;20101;-74
2022/07/29 06:30:28;;;;;;;5.80;3.63;;;;;;;;;;5027718;28;20384;-75
2022/07/29 06:32:54;;;;;;;6.03;3.58;;;;;;;;;;5023774;28;20391;-74
2022/07/29 06:35:21;;;;;;;4.20;3.50;;;;;;;;;;5023619;28;20136;-74
2022/07/29 06:37:47;;;;;;;5.38;3.78;;;;;;;;;;5025909;28;20510;-75
2022/07/29 06:42:58;;;;;;;6.57;3.60;;;;;;;;;;5027822;28;20072;-75
2022/07/29 06:45:24;;;;;;;4.03;3.30;;;;;;;;;;5030592;28;20022;-75
2022/07/29 06:47:51;;;;;;;3.47;3.17;;;;;;;;;;5028181;28;20502;-76
2022/07/29 06:50:17;;;;;;;4.75;3.50;;;;;;;;;;5030292;28;20034;-75
2022/07/29 06:52:43;;;;;;;5.15;3.40;;;;;;;;;;5027088;28;20033;-76
2022/07/29 06:55:09;;;;;;;5.70;3.47;;;;;;;;;;5027286;28;20403;-75
2022/07/29 06:57:35;;;;;;;4.93;3.25;;;;;;;;;;5028256;28;20026;-73
2022/07/29 07:00:04;;;;;;;4.47;3.60;;;;;;;;;;5028947;28;20447;-75
2022/07/29 07:02:30;;;;;;;3.85;3.15;;;;;;;;;;5028050;28;20021;-75
2022/07/29 07:04:56;;;;;;;5.05;3.33;;;;;;;;;;5025712;28;20551;-74
2022/07/29 07:07:22;;;;;;;5.40;3.40;;;;;;;;;;5026095;28;20056;-75
2022/07/29 07:09:48;;;;;;;5.03;3.15;;;;;;;;;;5025637;28;20056;-75
2022/07/29 07:12:14;;;;;;;3.90;3.15;;;;;;;;;;5024564;28;20017;-74
2022/07/29 07:14:40;;;;;;;5.55;3.20;;;;;;;;;;5025899;28;20029;-75
2022/07/29 07:17:07;;;;;;;4.15;3.00;;;;;;;;;;5028238;28;20061;-75
2022/07/29 07:19:33;;;;;;;4.50;2.90;;;;;;;;;;5025670;28;20116;-75
2022/07/29 07:21:59;;;;;;;4.95;2.97;;;;;;;;;;5028847;28;20079;-75
2022/07/29 07:24:25;;;;;;;4.22;3.25;;;;;;;;;;5025958;28;20021;-74
2022/07/29 07:26:52;;;;;;;4.60;3.58;;;;;;;;;;5028530;28;20374;-74
2022/07/29 07:29:18;;;;;;;5.13;3.60;;;;;;;;;;5027679;28;20017;-76
2022/07/29 07:31:44;;;;;;;4.35;3.28;;;;;;;;;;5023955;28;20092;-75
2022/07/29 07:34:10;;;;;;;5.43;3.60;;;;;;;;;;5026767;28;20017;-76
2022/07/29 07:36:36;;;;;;;7.50;3.83;;;;;;;;;;5024140;28;20041;-75
2022/07/29 07:39:03;;;;;;;4.88;3.58;;;;;;;;;;5026996;28;20364;-76
2022/07/29 07:41:29;;;;;;;5.22;3.50;;;;;;;;;;5025148;28;20052;-76
2022/07/29 07:43:55;;;;;;;8.50;4.38;;;;;;;;;;5021834;28;20058;-75
2022/07/29 07:46:21;;;;;;;6.88;4.32;;;;;;;;;;5022625;28;20017;-75
2022/07/29 07:48:47;;;;;;;4.10;3.70;;;;;;;;;;5024565;28;20025;-76
2022/07/29 07:51:14;;;;;;;5.35;4.32;;;;;;;;;;5023911;28;20061;-76
2022/07/29 07:53:40;;;;;;;5.38;3.88;;;;;;;;;;5018162;28;20025;-76
2022/07/29 07:56:06;;;;;;;5.57;3.78;;;;;;;;;;5019803;28;20058;-76
2022/07/29 07:58:35;;;;;;;6.75;3.70;;;;;;;;;;5022049;28;20025;-77
2022/07/29 08:01:01;;;;;;;6.88;4.05;;;;;;;;;;5021209;28;20135;-77
2022/07/29 08:03:27;;;;;;;5.30;3.47;;;;;;;;;;5022454;28;20028;-79
2022/07/29 08:05:54;;;;;;;5.45;3.60;;;;;;;;;;5019092;28;20036;-77
2022/07/29 08:08:20;;;;;;;5.13;3.40;;;;;;;;;;5023210;28;20022;-76
2022/07/29 08:10:52;;;;;;;7.00;3.95;;;;;;;;;;5020614;28;20155;-77
2022/07/29 08:13:19;;;;;;;5.68;3.63;;;;;;;;;;5018576;28;20106;-77
2022/07/29 08:15:46;;;;;;;8.88;3.65;;;;;;;;;;5022411;28;20558;-75
2022/07/29 08:18:12;;;;;;;7.78;3.55;;;;;;;;;;5023159;28;20029;-76
2022/07/29 08:20:39;;;;;;;6.70;3.90;;;;;;;;;;5022832;28;20488;-76
2022/07/29 08:23:08;;;;;;;4.32;3.70;;;;;;;;;;5022838;28;20021;-75
2022/07/29 08:25:34;;;;;;;5.18;3.30;;;;;;;;;;5021051;28;20022;-77
2022/07/29 08:28:01;;;;;;;3.83;2.80;;;;;;;;;;5021944;28;20030;-77
2022/07/29 08:30:27;;;;;;;4.68;2.85;;;;;;;;;;5021615;28;20092;-76
2022/07/29 08:32:53;;;;;;;3.35;3.05;;;;;;;;;;5022419;28;20029;-76
2022/07/29 08:35:20;;;;;;;4.53;2.53;;;;;;;;;;5023092;28;20049;-76
2022/07/29 08:37:46;;;;;;;6.28;3.40;;;;;;;;;;5023910;28;20037;-78
2022/07/29 08:40:13;;;;;;;3.08;2.30;;;;;;;;;;5020747;28;20108;-77
2022/07/29 08:42:40;;;;;;;4.63;3.00;;;;;;;;;;5027425;28;20052;-74
2022/07/29 08:45:06;;;;;;;3.50;2.60;;;;;;;;;;5024466;28;20049;-77
2022/07/29 08:47:35;;;;;;;5.68;3.20;;;;;;;;;;5025123;28;20025;-75
2022/07/29 08:50:02;;;;;;;3.60;2.60;;;;;;;;;;5021274;28;20044;-76
2022/07/29 08:52:29;;;;;;;6.97;3.42;;;;;;;;;;5029546;28;20479;-75
2022/07/29 08:54:55;;;;;;;4.57;3.35;;;;;;;;;;5023626;28;20025;-74
2022/07/29 08:57:22;;;;;;;3.63;2.70;;;;;;;;;;5027211;28;20033;-76
2022/07/29 08:59:53;;;;;;;4.43;2.70;;;;;;;;;;5027154;28;20083;-74
2022/07/29 09:02:21;;;;;;;2.88;2.45;;;;;;;;;;5021736;28;20029;-76
2022/07/29 09:04:48;;;;;;;4.15;2.80;;;;;;;;;;5025256;28;20391;-76
2022/07/29 09:07:19;;;;;;;3.55;2.40;;;;;;;;;;5031480;28;20540;-75
2022/07/29 09:09:46;;;;;;;5.47;2.60;;;;;;;;;;5025708;28;20079;-75
2022/07/29 09:12:12;;;;;;;3.85;2.20;;;;;;;;;;5030490;28;20032;-77
2022/07/29 09:14:39;;;;;;;3.92;2.42;;;;;;;;;;5022514;28;20035;-77
2022/07/29 09:17:05;;;;;;;4.78;3.10;;;;;;;;;;5022691;28;20029;-77
2022/07/29 09:19:34;;;;;;;3.40;2.72;;;;;;;;;;5024892;28;20031;-77
2022/07/29 09:22:00;;;;;;;4.00;2.70;;;;;;;;;;5024938;28;20025;-78
2022/07/29 09:24:27;;;;;;;5.30;2.60;;;;;;;;;;5028434;28;20022;-76
2022/07/29 09:26:54;;;;;;;3.53;2.45;;;;;;;;;;5025161;28;20029;-77
2022/07/29 09:29:21;;;;;;;4.72;2.80;;;;;;;;;;5029049;28;20096;-76
2022/07/29 09:31:50;;;;;;;3.30;2.40;;;;;;;;;;5030102;28;20026;-77
2022/07/29 09:34:17;;;;;;;3.28;2.58;;;;;;;;;;5028056;28;20025;-77
2022/07/29 09:36:44;;;;;;;3.22;2.70;;;;;;;;;;5022821;28;20125;-77
2022/07/29 09:39:10;;;;;;;3.63;2.38;;;;;;;;;;5024968;28;20491;-76
2022/07/29 09:41:52;;;;;;;3.13;2.42;;;;;;;;;;5024729;28;20025;-74
2022/07/29 09:44:19;;;;;;;3.35;2.10;;;;;;;;;;5022788;28;20109;-75
2022/07/29 09:47:05;;;;;;;4.00;2.28;;;;;;;;;;5024245;28;20026;-75
2022/07/29 09:49:32;;;;;;;5.05;2.60;;;;;;;;;;5031284;28;20485;-77
2022/07/29 09:52:04;;;;;;;4.72;2.30;;;;;;;;;;5024296;28;20021;-76
2022/07/29 09:54:36;;;;;;;2.40;2.20;;;;;;;;;;5030120;28;20487;-77
2022/07/29 09:57:02;;;;;;;3.35;2.30;;;;;;;;;;5025636;28;20030;-77
2022/07/29 09:59:29;;;;;;;2.67;2.33;;;;;;;;;;5042015;28;20025;-77
2022/07/29 10:01:55;;;;;;;3.33;2.40;;;;;;;;;;5024582;28;20032;-76
2022/07/29 10:04:21;;;;;;;3.72;2.15;;;;;;;;;;5024103;28;20026;-76
2022/07/29 10:07:01;;;;;;;2.60;2.30;;;;;;;;;;5030392;28;20029;-76
2022/07/29 10:09:27;;;;;;;3.58;2.20;;;;;;;;;;5035057;28;20044;-75
2022/07/29 10:12:16;;;;;;;3.70;2.30;;;;;;;;;;5033067;28;20639;-78
2022/07/29 10:14:42;;;;;;;3.10;2.20;;;;;;;;;;5025635;28;20403;-76
2022/07/29 10:17:09;;;;;;;4.75;2.33;;;;;;;;;;5021953;28;20037;-76
2022/07/29 10:19:37;;;;;;;4.35;2.28;;;;;;;;;;5029362;28;20036;-77
2022/07/29 10:22:05;;;;;;;4.82;2.85;;;;;;;;;;5029627;28;20029;-75
2022/07/29 10:24:32;;;;;;;4.72;2.83;;;;;;;;;;5024194;28;20067;-77
2022/07/29 10:27:01;;;;;;;2.63;2.00;;;;;;;;;;5029545;28;20014;-77
2022/07/29 10:29:28;;;;;;;2.88;2.10;;;;;;;;;;5028679;28;20036;-77
2022/07/29 10:31:57;;;;;;;4.00;2.25;;;;;;;;;;5028254;28;20140;-77
2022/07/29 10:34:30;;;;;;;4.07;2.33;;;;;;;;;;5026061;28;20026;-76
2022/07/29 10:37:23;;;;;;;3.15;2.50;;;;;;;;;;5029730;28;20037;-77
2022/07/29 10:41:25;;;;;;;4.95;2.80;;;;;;;;;;5035987;28;20026;-76
2022/07/29 10:43:00;;;;;;;3.05;2.67;;;;;;;;;;5028374;28;20404;-76
2022/07/29 10:45:27;;;;;;;3.13;2.10;;;;;;;;;;5028507;28;20093;-76
2022/07/29 10:48:06;;;;;;;4.03;2.20;;;;;;;;;;5029677;28;20467;-76
2022/07/29 10:50:50;;;;;;;5.75;2.53;;;;;;;;;;5031742;28;20026;-75
2022/07/29 10:53:17;;;;;;;2.35;2.15;;;;;;;;;;5038933;28;20029;-76
2022/07/29 10:55:46;;;;;;;5.47;2.47;;;;;;;;;;5041551;28;20223;-76
2022/07/29 10:58:13;;;;;;;2.92;2.20;;;;;;;;;;5030957;28;20032;-75
2022/07/29 11:00:39;;;;;;;2.42;2.00;;;;;;;;;;5028353;28;20294;-78
2022/07/29 11:03:05;;;;;;;3.28;2.83;;;;;;;;;;5036361;28;20203;-76
2022/07/29 11:05:53;;;;;;;2.42;2.03;;;;;;;;;;5034211;28;20025;-77
2022/07/29 11:08:22;;;;;;;4.45;2.00;;;;;;;;;;5041659;28;20467;-77
2022/07/29 11:10:49;;;;;;;3.78;1.83;;;;;;;;;;5027563;28;20084;-76
2022/07/29 11:13:34;;;;;;;2.40;2.10;;;;;;;;;;5028390;28;20030;-77
2022/07/29 11:16:00;;;;;;;2.90;2.00;;;;;;;;;;5022574;28;20040;-78
2022/07/29 11:18:26;;;;;;;2.20;1.80;;;;;;;;;;5028747;28;20029;-77
2022/07/29 11:20:55;;;;;;;2.70;2.00;;;;;;;;;;5026489;28;20492;-77
2022/07/29 11:23:24;;;;;;;2.78;2.10;;;;;;;;;;5022944;28;20021;-76
2022/07/29 11:26:09;;;;;;;2.10;1.73;;;;;;;;;;5022572;28;20412;-77
2022/07/29 11:28:36;;;;;;;3.58;1.90;;;;;;;;;;5026520;28;20555;-77
2022/07/29 11:31:03;;;;;;;2.95;1.90;;;;;;;;;;5023491;28;20064;-76
2022/07/29 11:33:30;;;;;;;3.17;1.88;;;;;;;;;;5024301;28;20435;-75
2022/07/29 11:36:09;;;;;;;2.60;1.83;;;;;;;;;;5023549;28;20049;-77
2022/07/29 11:38:35;;;;;;;5.00;1.95;;;;;;;;;;5024820;28;20034;-77
2022/07/29 11:41:20;;;;;;;3.00;2.20;;;;;;;;;;5026685;28;20084;-76
2022/07/29 11:43:47;;;;;;;3.35;2.38;;;;;;;;;;5021473;28;20024;-75
2022/07/29 11:46:13;;;;;;;3.30;2.00;;;;;;;;;;5028619;28;20018;-74
2022/07/29 11:48:43;;;;;;;2.00;1.80;;;;;;;;;;5024118;28;20425;-76
2022/07/29 11:51:11;;;;;;;2.92;2.40;;;;;;;;;;5021838;28;20029;-78
2022/07/29 11:53:37;;;;;;;3.55;2.00;;;;;;;;;;5025069;28;20021;-75
2022/07/29 11:56:04;;;;;;;4.38;1.92;;;;;;;;;;5025793;28;20025;-75
2022/07/29 11:58:31;;;;;;;5.47;2.17;;;;;;;;;;5025575;28;20029;-76
2022/07/29 12:00:57;;;;;;;3.60;1.95;;;;;;;;;;5028515;28;20178;-76
2022/07/29 12:03:28;;;;;;;2.60;1.98;;;;;;;;;;5025195;28;20028;-76
2022/07/29 12:05:54;;;;;;;2.47;1.70;;;;;;;;;;5030013;28;20041;-80
2022/07/29 12:08:22;;;;;;;3.40;1.90;;;;;;;;;;5042545;28;20022;-78
2022/07/29 12:10:50;;;;;;;3.35;1.92;;;;;;;;;;5025844;28;20039;-76
2022/07/29 12:13:17;;;;;;;2.10;1.90;;;;;;;;;;5024025;28;20060;-75
2022/07/29 12:15:51;;;;;;;1.92;1.75;;;;;;;;;;5020513;28;20033;-76
2022/07/29 12:18:19;;;;;;;2.00;1.85;;;;;;;;;;5023039;28;20559;-78
2022/07/29 12:20:46;;;;;;;2.10;1.77;;;;;;;;;;5020620;28;20822;-77
2022/07/29 12:23:13;;;;;;;2.13;1.95;;;;;;;;;;5021726;28;20041;-77
2022/07/29 12:25:40;;;;;;;2.92;1.95;;;;;;;;;;5022174;28;20029;-76
2022/07/29 12:28:10;;;;;;;2.05;1.90;;;;;;;;;;5022098;28;20063;-78
2022/07/29 12:30:44;;;;;;;2.10;1.70;;;;;;;;;;5022105;28;20099;-77
2022/07/29 12:33:12;;;;;;;1.77;1.60;;;;;;;;;;5026464;28;20036;-76
2022/07/29 12:35:38;;;;;;;1.77;1.60;;;;;;;;;;5025263;28;20041;-76
2022/07/29 12:38:04;;;;;;;3.38;1.70;;;;;;;;;;5028314;28;20021;-77
2022/07/29 12:40:30;;;;;;;1.60;1.50;;;;;;;;;;5024512;28;20048;-76
2022/07/29 12:43:10;;;;;;;2.03;1.70;;;;;;;;;;5022336;28;20101;-76
2022/07/29 12:45:37;;;;;;;1.85;1.67;;;;;;;;;;5021806;28;20021;-77
2022/07/29 12:48:03;;;;;;;2.20;1.60;;;;;;;;;;5018773;28;20056;-77
2022/07/29 12:50:31;;;;;;;4.63;1.90;;;;;;;;;;5021638;28;20059;-77
2022/07/29 12:53:08;;;;;;;3.60;2.00;;;;;;;;;;5022050;28;20040;-76
2022/07/29 12:55:48;;;;;;;2.53;1.73;;;;;;;;;;5024613;28;20134;-79
2022/07/29 12:58:15;;;;;;;2.35;2.00;;;;;;;;;;5020977;28;20021;-76
2022/07/29 13:00:41;;;;;;;2.00;1.80;;;;;;;;;;5021941;28;20033;-77
2022/07/29 13:03:07;;;;;;;2.00;1.80;;;;;;;;;;5022266;28;20025;-76
2022/07/29 13:05:42;;;;;;;2.90;1.95;;;;;;;;;;5019993;28;20026;-77
2022/07/29 13:08:12;;;;;;;3.17;1.92;;;;;;;;;;5025766;28;20040;-76
2022/07/29 13:10:38;;;;;;;1.92;1.65;;;;;;;;;;5022741;28;20550;-77
2022/07/29 13:13:10;;;;;;;3.20;1.83;;;;;;;;;;5021141;28;20496;-76
2022/07/29 13:15:40;;;;;;;2.33;1.60;;;;;;;;;;5021235;28;20052;-77
2022/07/29 13:18:26;;;;;;;2.72;1.70;;;;;;;;;;5022588;28;20076;-76
2022/07/29 13:20:52;;;;;;;2.72;1.60;;;;;;;;;;5024001;28;20025;-76
2022/07/29 13:23:18;;;;;;;2.03;1.60;;;;;;;;;;5023736;28;20026;-75
2022/07/29 13:25:44;;;;;;;2.00;1.50;;;;;;;;;;5017577;28;20030;-76
2022/07/29 13:28:11;;;;;;;2.92;1.52;;;;;;;;;;5023062;28;20095;-77
2022/07/29 13:30:37;;;;;;;1.83;1.48;;;;;;;;;;5020543;28;20416;-76
2022/07/29 13:33:03;;;;;;;1.98;1.70;;;;;;;;;;5020554;28;20040;-76
2022/07/29 13:35:29;;;;;;;1.65;1.55;;;;;;;;;;5023138;28;20072;-79
2022/07/29 13:37:56;;;;;;;1.85;1.60;;;;;;;;;;5024900;28;20029;-75
2022/07/29 13:40:22;;;;;;;2.47;1.60;;;;;;;;;;5024681;28;20033;-76
2022/07/29 13:42:48;;;;;;;3.80;1.95;;;;;;;;;;5024697;28;20025;-76
2022/07/29 13:45:14;;;;;;;2.03;1.80;;;;;;;;;;5025225;28;20490;-76
2022/07/29 13:47:40;;;;;;;1.90;1.70;;;;;;;;;;5022747;28;20413;-79
2022/07/29 13:50:09;;;;;;;2.45;1.60;;;;;;;;;;5021887;28;21022;-76
2022/07/29 13:52:36;;;;;;;4.63;1.90;;;;;;;;;;5024672;28;20053;-77
2022/07/29 13:55:02;;;;;;;2.80;1.70;;;;;;;;;;5021030;28;20510;-76
2022/07/29 13:57:29;;;;;;;2.72;2.15;;;;;;;;;;5026309;28;20025;-76
2022/07/29 13:59:55;;;;;;;2.00;1.80;;;;;;;;;;5021952;28;20026;-76
2022/07/29 14:02:21;;;;;;;2.20;2.00;;;;;;;;;;5023102;28;20036;-76
2022/07/29 14:04:47;;;;;;;3.95;2.00;;;;;;;;;;5022754;28;20057;-76
2022/07/29 14:07:13;;;;;;;2.40;1.80;;;;;;;;;;5022354;28;20043;-76
2022/07/29 14:09:40;;;;;;;4.72;2.15;;;;;;;;;;5024580;28;20033;-76
2022/07/29 14:12:06;;;;;;;2.90;2.17;;;;;;;;;;5022493;28;20476;-75
2022/07/29 14:14:32;;;;;;;2.03;1.70;;;;;;;;;;5025091;28;20031;-76
2022/07/29 14:16:58;;;;;;;1.98;1.80;;;;;;;;;;5028622;28;20435;-76
2022/07/29 14:19:24;;;;;;;2.70;1.85;;;;;;;;;;5025313;28;20021;-75
2022/07/29 14:21:50;;;;;;;2.90;2.00;;;;;;;;;;5021899;28;20044;-76
2022/07/29 14:24:16;;;;;;;2.15;1.95;;;;;;;;;;5021397;28;20045;-76
2022/07/29 14:26:43;;;;;;;2.67;2.25;;;;;;;;;;5025099;28;20479;-76
2022/07/29 14:29:09;;;;;;;3.85;2.17;;;;;;;;;;5025893;28;20034;-76
2022/07/29 14:31:35;;;;;;;2.15;1.70;;;;;;;;;;5024776;28;20040;-76
2022/07/29 14:34:01;;;;;;;3.40;1.95;;;;;;;;;;5022137;28;20029;-76
2022/07/29 14:36:27;;;;;;;3.00;1.90;;;;;;;;;;5025423;28;20094;-75
2022/07/29 14:38:53;;;;;;;4.10;1.98;;;;;;;;;;5025496;28;20025;-77
2022/07/29 14:41:25;;;;;;;3.72;2.00;;;;;;;;;;5025818;28;20032;-76
2022/07/29 14:43:53;;;;;;;1.83;1.70;;;;;;;;;;5025049;28;20125;-75
2022/07/29 14:46:19;;;;;;;2.60;2.22;;;;;;;;;;5021111;28;20100;-76
2022/07/29 14:48:45;;;;;;;3.38;1.85;;;;;;;;;;5023243;28;20022;-76
2022/07/29 14:51:11;;;;;;;7.88;2.20;;;;;;;;;;5026205;28;20068;-76